Time;durP1;ratioP1;P1;durP2;ratioP2;P2;SDS_P1;SDS_P2;PMS_P1;PMS_P2;Temp;Humidity;BMP_temperature;BMP_pressure;BME280_temperature;BME280_humidity;BME280_pressure;Samples;Min_cycle;Max_cycle;Signal;HPM_P1;HPM_P2
2022/07/22 00:00:34;;;;;;;;;;;;;;;22.45;52.24;100748.89;1744324;82;20209;-81
2022/07/22 00:03:01;;;;;;;;;;;;;;;22.47;52.55;100742.67;1744438;82;20170;-81
2022/07/22 00:05:27;;;;;;;;;;;;;;;22.48;52.85;100739.73;1744574;82;21159;-81
2022/07/22 00:07:53;;;;;;;;;;;;;;;22.51;53.04;100747.92;1744379;82;20205;-80
2022/07/22 00:10:19;;;;;;;;;;;;;;;22.50;53.23;100743.55;1744454;82;20277;-81
2022/07/22 00:12:45;;;;;;;;;;;;;;;22.47;53.65;100746.22;1744635;81;20181;-81
2022/07/22 00:15:10;;;;;;;;;;;;;;;22.39;54.03;100747.94;1744545;82;20173;-81
2022/07/22 00:17:36;;;;;;;;;;;;;;;22.32;54.42;100731.77;1744525;82;21174;-81
2022/07/22 00:20:03;;;;;;;;;;;;;;;22.26;54.66;100730.02;1744531;82;20276;-81
2022/07/22 00:22:29;;;;;;;;;;;;;;;22.20;54.91;100728.22;1744198;81;20162;-81
2022/07/22 00:24:55;;;;;;;;;;;;;;;22.13;55.14;100727.52;1744579;82;20701;-81
2022/07/22 00:27:21;;;;;;;;;;;;;;;22.07;55.36;100717.61;1744439;82;20189;-81
2022/07/22 00:29:47;;;;;;;;;;;;;;;22.01;55.62;100722.64;1744361;82;21039;-81
2022/07/22 00:32:12;;;;;;;;;;;;;;;21.92;55.87;100728.12;1738033;82;20177;-81
2022/07/22 00:34:38;;;;;;;;;;;;;;;21.87;56.16;100729.34;1736441;82;20292;-81
2022/07/22 00:37:04;;;;;;;;;;;;;;;21.82;56.42;100730.56;1736454;82;20647;-81
2022/07/22 00:39:30;;;;;;;;;;;;;;;21.78;56.67;100728.02;1736161;82;20159;-81
2022/07/22 00:41:56;;;;;;;;;;;;;;;21.72;56.85;100725.73;1736505;82;21777;-81
2022/07/22 00:44:22;;;;;;;;;;;;;;;21.67;57.16;100722.08;1736228;82;20738;-81
2022/07/22 00:46:48;;;;;;;;;;;;;;;21.64;57.32;100719.27;1736205;82;20193;-81
2022/07/22 00:49:14;;;;;;;;;;;;;;;21.62;57.49;100721.94;1736336;82;20225;-81
2022/07/22 00:51:39;;;;;;;;;;;;;;;21.59;57.67;100718.34;1734392;82;20221;-81
2022/07/22 00:54:05;;;;;;;;;;;;;;;21.57;57.85;100716.40;1710196;82;21247;-80
2022/07/22 00:56:32;;;;;;;;;;;;;;;21.56;57.97;100706.06;1736007;82;20187;-80
2022/07/22 00:58:58;;;;;;;;;;;;;;;21.58;58.06;100720.75;1736171;82;20155;-80
2022/07/22 01:01:24;;;;;;;;;;;;;;;21.55;58.16;100725.29;1736421;82;20764;-80
2022/07/22 01:03:50;;;;;;;;;;;;;;;21.52;58.37;100732.55;1736434;82;20162;-80
2022/07/22 01:06:16;;;;;;;;;;;;;;;21.48;58.60;100734.06;1733171;82;21103;-81
2022/07/22 01:08:42;;;;;;;;;;;;;;;21.43;58.83;100713.60;1728897;82;20245;-80
2022/07/22 01:11:15;;;;;;;;;;;;;;;21.45;58.95;100706.05;1713913;82;20781;-80
2022/07/22 01:13:41;;;;;;;;;;;;;;;21.47;59.01;100698.48;1729833;82;20143;-80
2022/07/22 01:16:08;;;;;;;;;;;;;;;21.48;59.13;100705.57;1731757;82;20241;-80
2022/07/22 01:18:34;;;;;;;;;;;;;;;21.49;59.18;100700.45;1736600;82;21089;-80
2022/07/22 01:21:00;;;;;;;;;;;;;;;21.50;59.23;100692.61;1736332;82;20179;-80
2022/07/22 01:23:26;;;;;;;;;;;;;;;21.50;59.26;100693.97;1736464;82;20770;-80
2022/07/22 01:25:52;;;;;;;;;;;;;;;21.53;59.29;100701.11;1736378;82;20174;-80
2022/07/22 01:28:18;;;;;;;;;;;;;;;21.58;59.31;100708.01;1736629;82;20268;-80
2022/07/22 01:30:44;;;;;;;;;;;;;;;21.62;59.29;100730.08;1729796;82;21146;-79
2022/07/22 01:33:10;;;;;;;;;;;;;;;21.62;59.27;100750.44;1750246;82;20366;-80
2022/07/22 01:35:36;;;;;;;;;;;;;;;21.61;59.36;100746.89;1753136;81;20201;-80
2022/07/22 01:38:01;;;;;;;;;;;;;;;21.60;59.40;100724.91;1752981;82;20252;-81
2022/07/22 01:40:27;;;;;;;;;;;;;;;21.60;59.45;100711.33;1753542;82;20679;-88
2022/07/22 01:42:53;;;;;;;;;;;;;;;21.57;59.57;100728.62;1753147;82;21058;-88
2022/07/22 01:45:19;;;;;;;;;;;;;;;21.47;59.75;100739.19;1734513;82;20234;-88
2022/07/22 01:47:45;;;;;;;;;;;;;;;21.36;59.93;100756.57;1751496;82;20184;-88
2022/07/22 01:50:11;;;;;;;;;;;;;;;21.28;60.15;100771.02;1753438;82;20796;-87
2022/07/22 01:52:40;;;;;;;;;;;;;;;21.17;60.36;100787.55;1753422;82;20525;-88
2022/07/22 01:55:07;;;;;;;;;;;;;;;21.07;60.62;100799.44;1753209;82;21209;-87
2022/07/22 01:57:33;;;;;;;;;;;;;;;20.99;60.86;100800.27;1753056;82;20158;-87
2022/07/22 01:59:59;;;;;;;;;;;;;;;20.93;61.08;100778.97;1753427;82;20252;-87
2022/07/22 02:02:25;;;;;;;;;;;;;;;20.85;61.35;100761.66;1753441;82;20221;-88
2022/07/22 02:04:51;;;;;;;;;;;;;;;20.79;61.58;100735.46;1753266;82;20153;-89
2022/07/22 02:07:16;;;;;;;;;;;;;;;20.79;61.74;100723.27;1759049;81;21942;-88
2022/07/22 02:09:42;;;;;;;;;;;;;;;20.70;61.92;100720.55;1750714;82;20655;-88
2022/07/22 02:12:08;;;;;;;;;;;;;;;20.59;62.13;100715.89;1758935;81;20196;-89
2022/07/22 02:14:34;;;;;;;;;;;;;;;20.51;62.42;100716.22;1750521;82;20803;-88
2022/07/22 02:17:00;;;;;;;;;;;;;;;20.53;62.64;100722.23;1750817;82;20618;-88
2022/07/22 02:19:26;;;;;;;;;;;;;;;20.52;62.82;100730.05;1759012;81;21053;-88
2022/07/22 02:21:52;;;;;;;;;;;;;;;20.54;63.00;100733.38;1750436;82;20262;-88
2022/07/22 02:24:18;;;;;;;;;;;;;;;20.56;63.15;100727.19;1758746;81;20203;-88
2022/07/22 02:26:43;;;;;;;;;;;;;;;20.53;63.27;100723.06;1749482;82;20824;-87
2022/07/22 02:29:09;;;;;;;;;;;;;;;20.51;63.41;100727.06;1758949;81;20234;-88
2022/07/22 02:31:35;;;;;;;;;;;;;;;20.41;63.55;100724.34;1748688;82;21101;-88
2022/07/22 02:34:01;;;;;;;;;;;;;;;20.31;63.82;100726.75;1743654;82;20364;-87
2022/07/22 02:36:26;;;;;;;;;;;;;;;20.25;64.08;100727.63;1749883;81;20209;-87
2022/07/22 02:38:52;;;;;;;;;;;;;;;20.23;64.25;100736.48;1749839;82;20169;-86
2022/07/22 02:41:18;;;;;;;;;;;;;;;20.21;64.43;100744.02;1749888;82;20159;-87
2022/07/22 02:43:44;;;;;;;;;;;;;;;20.14;64.59;100739.20;1749458;81;21140;-86
2022/07/22 02:46:10;;;;;;;;;;;;;;;20.05;64.79;100744.61;1749917;82;20957;-86
2022/07/22 02:48:36;;;;;;;;;;;;;;;19.98;64.97;100745.20;1749804;82;20282;-86
2022/07/22 02:51:03;;;;;;;;;;;;;;;19.95;65.16;100746.97;1748357;81;20213;-86
2022/07/22 02:53:29;;;;;;;;;;;;;;;19.95;65.33;100741.56;1746263;82;20158;-86
2022/07/22 02:55:54;;;;;;;;;;;;;;;19.94;65.47;100742.63;1748577;82;21203;-85
2022/07/22 02:58:20;;;;;;;;;;;;;;;19.94;65.62;100743.47;1748564;81;20240;-85
2022/07/22 03:00:46;;;;;;;;;;;;;;;19.97;65.72;100750.30;1748403;82;20232;-85
2022/07/22 03:03:12;;;;;;;;;;;;;;;19.97;65.80;100739.47;1744889;81;20240;-85
2022/07/22 03:05:38;;;;;;;;;;;;;;;19.91;65.88;100741.73;1747715;82;20173;-84
2022/07/22 03:08:04;;;;;;;;;;;;;;;19.84;65.99;100739.61;1747703;82;21173;-85
2022/07/22 03:10:30;;;;;;;;;;;;;;;19.80;66.13;100743.80;1746139;82;20199;-85
2022/07/22 03:12:56;;;;;;;;;;;;;;;19.74;66.27;100741.44;1738647;82;20215;-84
2022/07/22 03:15:21;;;;;;;;;;;;;;;19.69;66.46;100750.77;1748259;82;20182;-84
2022/07/22 03:17:47;;;;;;;;;;;;;;;19.64;66.70;100750.58;1746947;82;20303;-84
2022/07/22 03:20:13;;;;;;;;;;;;;;;19.61;66.91;100755.08;1749824;82;21127;-85
2022/07/22 03:22:39;;;;;;;;;;;;;;;19.61;67.08;100751.55;1747725;81;20208;-85
2022/07/22 03:25:05;;;;;;;;;;;;;;;19.63;67.25;100752.17;1748452;82;20756;-85
2022/07/22 03:27:31;;;;;;;;;;;;;;;19.69;67.33;100751.28;1748333;82;20838;-84
2022/07/22 03:29:57;;;;;;;;;;;;;;;19.72;67.46;100753.55;1748426;81;20205;-84
2022/07/22 03:32:23;;;;;;;;;;;;;;;19.75;67.55;100754.45;1756331;81;21173;-84
2022/07/22 03:34:48;;;;;;;;;;;;;;;19.78;67.65;100756.19;1768952;81;20196;-84
2022/07/22 03:37:14;;;;;;;;;;;;;;;19.79;67.70;100753.80;1766368;81;20249;-84
2022/07/22 03:39:40;;;;;;;;;;;;;;;19.80;67.76;100751.92;1747135;82;20248;-84
2022/07/22 03:42:06;;;;;;;;;;;;;;;19.81;67.81;100771.15;1746891;82;20832;-84
2022/07/22 03:44:32;;;;;;;;;;;;;;;19.82;67.83;100770.11;1746428;82;21177;-84
2022/07/22 03:46:58;;;;;;;;;;;;;;;19.84;67.88;100773.44;1747199;81;20201;-83
2022/07/22 03:49:24;;;;;;;;;;;;;;;19.83;67.93;100782.60;1746966;82;20184;-84
2022/07/22 03:51:50;;;;;;;;;;;;;;;19.84;68.01;100781.01;1746846;82;20832;-84
2022/07/22 03:54:16;;;;;;;;;;;;;;;19.84;68.02;100777.50;1747114;81;20490;-84
2022/07/22 03:56:42;;;;;;;;;;;;;;;19.85;68.07;100779.13;1747105;82;21180;-84
2022/07/22 03:59:07;;;;;;;;;;;;;;;19.86;68.12;100778.09;1747301;81;20177;-84
2022/07/22 04:01:33;;;;;;;;;;;;;;;19.88;68.15;100782.23;1747068;81;20272;-84
2022/07/22 04:03:59;;;;;;;;;;;;;;;19.88;68.19;100778.69;1747183;82;20229;-84
2022/07/22 04:06:25;;;;;;;;;;;;;;;19.88;68.25;100782.75;1746915;82;20169;-84
2022/07/22 04:08:50;;;;;;;;;;;;;;;19.88;68.30;100778.69;1747226;81;21763;-84
2022/07/22 04:11:16;;;;;;;;;;;;;;;19.90;68.37;100782.02;1746936;82;20280;-84
2022/07/22 04:13:42;;;;;;;;;;;;;;;19.90;68.44;100782.02;1747295;81;20197;-84
2022/07/22 04:16:08;;;;;;;;;;;;;;;19.96;68.49;100796.02;1747144;81;20772;-84
2022/07/22 04:18:34;;;;;;;;;;;;;;;20.03;68.50;100786.48;1746963;82;20174;-84
2022/07/22 04:21:00;;;;;;;;;;;;;;;20.09;68.52;100782.35;1747189;81;21165;-85
2022/07/22 04:23:25;;;;;;;;;;;;;;;20.20;68.59;100784.34;1746856;82;20220;-84
2022/07/22 04:25:51;;;;;;;;;;;;;;;20.65;68.79;100779.53;1747271;81;20232;-84
2022/07/22 04:28:17;;;;;;;;;;;;;;;21.78;68.75;100778.25;1747259;81;20270;-85
2022/07/22 04:30:43;;;;;;;;;;;;;;;22.88;68.08;100773.75;1747552;81;20256;-85
2022/07/22 04:33:09;;;;;;;;;;;;;;;23.79;67.29;100772.72;1733942;82;21179;-85
2022/07/22 04:35:34;;;;;;;;;;;;;;;24.58;66.33;100768.77;1742192;82;20189;-85
2022/07/22 04:38:00;;;;;;;;;;;;;;;25.17;65.57;100777.95;1743908;82;20205;-84
2022/07/22 04:40:26;;;;;;;;;;;;;;;25.56;64.93;100777.29;1744080;82;20697;-85
2022/07/22 04:42:52;;;;;;;;;;;;;;;25.76;64.08;100779.36;1744073;81;20245;-85
2022/07/22 04:45:18;;;;;;;;;;;;;;;25.87;63.03;100777.53;1743879;82;22431;-85
2022/07/22 04:47:44;;;;;;;;;;;;;;;25.84;62.59;100774.25;1744652;82;20150;-85
2022/07/22 04:50:10;;;;;;;;;;;;;;;25.64;62.58;100776.00;1744388;82;20729;-85
2022/07/22 04:52:36;;;;;;;;;;;;;;;25.37;62.58;100777.91;1744241;82;20677;-85
2022/07/22 04:55:02;;;;;;;;;;;;;;;25.26;62.68;100773.67;1743247;81;20260;-85
2022/07/22 04:57:28;;;;;;;;;;;;;;;25.14;62.68;100770.28;1735417;82;22487;-85
2022/07/22 04:59:54;;;;;;;;;;;;;;;25.34;62.67;100767.76;1741046;82;20173;-85
2022/07/22 05:02:20;;;;;;;;;;;;;;;25.43;62.42;100776.86;1731967;81;20209;-85
2022/07/22 05:04:46;;;;;;;;;;;;;;;25.40;62.29;100778.20;1740126;82;21266;-85
2022/07/22 05:07:12;;;;;;;;;;;;;;;25.38;62.11;100771.33;1742510;82;20161;-86
2022/07/22 05:09:37;;;;;;;;;;;;;;;25.41;62.00;100775.73;1741365;82;21863;-87
2022/07/22 05:12:04;;;;;;;;;;;;;;;25.46;61.81;100773.06;1729296;81;20757;-86
2022/07/22 05:14:29;;;;;;;;;;;;;;;25.54;61.73;100766.34;1715421;82;20193;-87
2022/07/22 05:16:55;;;;;;;;;;;;;;;25.58;61.48;100767.48;1737257;82;20674;-87
2022/07/22 05:19:21;;;;;;;;;;;;;;;25.62;61.33;100759.02;1734581;82;20332;-87
2022/07/22 05:21:47;;;;;;;;;;;;;;;25.70;61.19;100754.45;1741217;81;21890;-87
2022/07/22 05:24:13;;;;;;;;;;;;;;;25.62;61.04;100752.19;1730379;82;20164;-87
2022/07/22 05:26:39;;;;;;;;;;;;;;;25.41;60.89;100742.14;1742426;82;20272;-86
2022/07/22 05:29:04;;;;;;;;;;;;;;;25.56;60.86;100740.41;1734480;82;20717;-87
2022/07/22 05:31:30;;;;;;;;;;;;;;;25.64;60.62;100736.38;1736669;81;20179;-88
2022/07/22 05:33:56;;;;;;;;;;;;;;;25.71;60.46;100737.81;1732016;82;21811;-86
2022/07/22 05:36:22;;;;;;;;;;;;;;;25.57;60.24;100741.23;1733796;82;20205;-88
2022/07/22 05:38:48;;;;;;;;;;;;;;;25.45;60.24;100743.27;1731982;82;21428;-88
2022/07/22 05:41:14;;;;;;;;;;;;;;;25.50;60.22;100736.50;1731246;81;20570;-87
2022/07/22 05:43:40;;;;;;;;;;;;;;;25.65;60.17;100739.41;1727368;82;20285;-86
2022/07/22 05:46:07;;;;;;;;;;;;;;;25.64;60.07;100742.67;1733928;82;21916;-87
2022/07/22 05:48:33;;;;;;;;;;;;;;;25.64;59.94;100741.84;1725352;81;20821;-86
2022/07/22 05:50:58;;;;;;;;;;;;;;;25.71;59.88;100736.98;1734121;82;20313;-86
2022/07/22 05:53:24;;;;;;;;;;;;;;;25.77;59.87;100736.76;1727374;82;20676;-87
2022/07/22 05:55:50;;;;;;;;;;;;;;;26.02;59.67;100740.76;1732162;81;20177;-86
2022/07/22 05:58:16;;;;;;;;;;;;;;;25.94;59.42;100743.97;1734115;81;21852;-86
2022/07/22 06:00:42;;;;;;;;;;;;;;;25.87;59.36;100742.01;1733311;81;20663;-88
2022/07/22 06:03:08;;;;;;;;;;;;;;;25.94;59.38;100739.33;1731131;81;20258;-88
2022/07/22 06:05:35;;;;;;;;;;;;;;;26.10;59.32;100738.37;1731377;81;20653;-87
2022/07/22 06:08:01;;;;;;;;;;;;;;;26.27;59.25;100730.84;1733619;81;20448;-88
2022/07/22 06:10:27;;;;;;;;;;;;;;;26.27;59.17;100733.58;1732023;81;21826;-87
2022/07/22 06:12:53;;;;;;;;;;;;;;;26.28;59.11;100737.14;1739275;82;20236;-87
2022/07/22 06:15:18;;;;;;;;;;;;;;;26.43;58.97;100733.62;1738852;81;20811;-87
2022/07/22 06:17:44;;;;;;;;;;;;;;;26.57;58.93;100730.69;1735952;81;21248;-87
2022/07/22 06:20:10;;;;;;;;;;;;;;;26.72;58.70;100732.13;1735947;81;20180;-87
2022/07/22 06:22:38;;;;;;;;;;;;;;;26.65;58.54;100732.37;1738050;81;21842;-87
2022/07/22 06:25:05;;;;;;;;;;;;;;;26.59;58.49;100731.27;1719351;82;20475;-88
2022/07/22 06:27:31;;;;;;;;;;;;;;;26.59;58.49;100732.63;1725796;81;20766;-87
2022/07/22 06:29:57;;;;;;;;;;;;;;;26.55;58.29;100739.19;1734921;82;20652;-87
2022/07/22 06:32:23;;;;;;;;;;;;;;;26.55;58.24;100734.25;1739712;81;20157;-87
2022/07/22 06:34:49;;;;;;;;;;;;;;;26.62;58.19;100740.30;1737549;81;22751;-87
2022/07/22 06:37:14;;;;;;;;;;;;;;;26.60;57.90;100731.55;1721954;82;20173;-87
2022/07/22 06:39:40;;;;;;;;;;;;;;;26.59;57.93;100736.20;1719942;82;20639;-87
2022/07/22 06:42:07;;;;;;;;;;;;;;;26.63;57.89;100739.22;1718557;81;20623;-87
2022/07/22 06:44:32;;;;;;;;;;;;;;;26.50;57.84;100742.42;1729865;81;20190;-87
2022/07/22 06:46:59;;;;;;;;;;;;;;;26.51;57.89;100741.34;1734385;81;21800;-87
2022/07/22 06:49:25;;;;;;;;;;;;;;;26.61;57.79;100737.27;1732631;81;20098;-87
2022/07/22 06:51:51;;;;;;;;;;;;;;;26.62;57.76;100737.56;1736451;81;20828;-87
2022/07/22 06:54:16;;;;;;;;;;;;;;;26.74;57.76;100743.64;1740598;81;21478;-87
2022/07/22 06:56:42;;;;;;;;;;;;;;;26.81;57.60;100742.28;1729339;82;20181;-87
2022/07/22 06:59:08;;;;;;;;;;;;;;;26.96;57.63;100751.12;1735991;81;21759;-87
2022/07/22 07:01:34;;;;;;;;;;;;;;;26.96;57.43;100747.02;1731559;82;20800;-87
2022/07/22 07:04:00;;;;;;;;;;;;;;;26.97;57.33;100748.67;1729096;81;20257;-88
2022/07/22 07:06:25;;;;;;;;;;;;;;;27.21;57.32;100749.82;1726759;82;20683;-87
2022/07/22 07:08:51;;;;;;;;;;;;;;;27.30;57.16;100746.81;1723076;82;20151;-87
2022/07/22 07:11:17;;;;;;;;;;;;;;;27.22;57.02;100751.47;1734863;81;21838;-88
2022/07/22 07:13:43;;;;;;;;;;;;;;;27.23;56.96;100747.62;1727625;81;20741;-89
2022/07/22 07:16:09;;;;;;;;;;;;;;;27.23;56.78;100754.47;1719288;82;20195;-89
2022/07/22 07:18:35;;;;;;;;;;;;;;;27.38;56.71;100751.47;1719718;82;20628;-87
2022/07/22 07:21:00;;;;;;;;;;;;;;;27.49;56.63;100756.73;1737172;81;20754;-87
2022/07/22 07:23:26;;;;;;;;;;;;;;;27.50;56.52;100757.56;1725724;82;21916;-88
2022/07/22 07:25:52;;;;;;;;;;;;;;;27.53;56.42;100754.27;1735242;82;20244;-88
2022/07/22 07:28:18;;;;;;;;;;;;;;;27.54;56.26;100755.38;1738481;82;20272;-88
2022/07/22 07:30:44;;;;;;;;;;;;;;;27.69;56.18;100761.42;1729246;81;20707;-86
2022/07/22 07:33:10;;;;;;;;;;;;;;;27.74;55.92;100762.77;1721518;82;20703;-86
2022/07/22 07:35:35;;;;;;;;;;;;;;;27.79;55.81;100756.76;1692112;84;21816;-87
2022/07/22 07:38:01;;;;;;;;;;;;;;;27.78;55.74;100752.37;1699412;83;20223;-88
2022/07/22 07:40:27;;;;;;;;;;;;;;;27.84;55.58;100754.55;1697314;84;20200;-88
2022/07/22 07:42:53;;;;;;;;;;;;;;;27.90;55.45;100757.58;1695592;83;20709;-88
2022/07/22 07:45:19;;;;;;;;;;;;;;;28.02;55.46;100747.12;1681880;84;20250;-88
2022/07/22 07:47:45;;;;;;;;;;;;;;;28.08;55.31;100757.01;1701640;84;21845;-89
2022/07/22 07:50:11;;;;;;;;;;;;;;;28.13;55.21;100751.53;1700451;83;20126;-88
2022/07/22 07:52:41;;;;;;;;;;;;;;;28.23;55.12;100752.88;1695299;83;20212;-88
2022/07/22 07:55:07;;;;;;;;;;;;;;;28.37;54.95;100749.54;1667775;84;20641;-89
2022/07/22 07:57:33;;;;;;;;;;;;;;;28.56;54.76;100751.95;1673006;83;20493;-90
2022/07/22 07:59:59;;;;;;;;;;;;;;;28.54;54.48;100757.72;1664404;83;21863;-90
2022/07/22 08:02:25;;;;;;;;;;;;;;;28.51;54.33;100755.53;1673149;83;20158;-89
2022/07/22 08:04:51;;;;;;;;;;;;;;;28.57;54.17;100753.61;1693051;83;21396;-89
2022/07/22 08:07:17;;;;;;;;;;;;;;;28.61;54.04;100757.41;1676655;83;20159;-89
2022/07/22 08:09:43;;;;;;;;;;;;;;;28.75;53.91;100761.23;1684854;83;20178;-87
2022/07/22 08:12:09;;;;;;;;;;;;;;;28.69;53.55;100763.19;1687473;83;22643;-89
2022/07/22 08:14:35;;;;;;;;;;;;;;;28.73;53.47;100764.83;1699798;83;20204;-88
2022/07/22 08:17:01;;;;;;;;;;;;;;;28.82;53.32;100757.62;1697908;83;20220;-91
2022/07/22 08:19:27;;;;;;;;;;;;;;;28.92;53.11;100760.35;1697846;83;20610;-92
2022/07/22 08:21:52;;;;;;;;;;;;;;;29.02;52.92;100763.04;1704146;82;20271;-91
2022/07/22 08:24:18;;;;;;;;;;;;;;;29.18;52.78;100761.84;1698456;83;21856;-91
2022/07/22 08:26:44;;;;;;;;;;;;;;;29.23;52.38;100763.73;1701213;83;20196;-88
2022/07/22 08:29:10;;;;;;;;;;;;;;;29.08;51.98;100761.08;1703783;83;20431;-90
2022/07/22 08:31:36;;;;;;;;;;;;;;;28.91;51.71;100758.70;1712107;83;21541;-89
2022/07/22 08:34:03;;;;;;;;;;;;;;;29.00;51.57;100759.73;1695188;82;20210;-91
2022/07/22 08:36:29;;;;;;;;;;;;;;;29.00;51.26;100765.23;1713246;82;22561;-93
2022/07/22 08:38:55;;;;;;;;;;;;;;;28.92;51.05;100760.35;1724413;82;20770;-92
2022/07/22 08:41:21;;;;;;;;;;;;;;;28.94;50.91;100761.42;1728617;81;20268;-93
2022/07/22 08:43:47;;;;;;;;;;;;;;;28.79;50.70;100767.80;1720793;82;20636;-93
2022/07/22 08:46:13;;;;;;;;;;;;;;;28.87;50.82;100769.98;1719767;81;20571;-92
2022/07/22 08:48:39;;;;;;;;;;;;;;;28.92;50.62;100769.14;1737099;82;22050;-92
2022/07/22 08:51:05;;;;;;;;;;;;;;;29.01;50.54;100768.26;1736877;82;20167;-92
2022/07/22 08:53:31;;;;;;;;;;;;;;;28.94;50.22;100767.75;1737280;82;20111;-93
2022/07/22 08:55:58;;;;;;;;;;;;;;;28.84;50.08;100762.31;1737061;82;20655;-93
2022/07/22 08:58:24;;;;;;;;;;;;;;;28.80;50.04;100762.59;1736830;81;20466;-92
2022/07/22 09:01:12;;;;;;;;;;;;;;;28.79;50.06;100767.80;1736368;82;21852;-92
2022/07/22 09:03:55;;;;;;;;;;;;;;;28.90;49.98;100767.21;1736725;82;20462;-93
2022/07/22 09:06:22;;;;;;;;;;;;;;;29.10;49.77;100767.92;1716612;82;20187;-92
2022/07/22 09:08:59;;;;;;;;;;;;;;;29.15;49.53;100772.02;1733466;82;20716;-92
2022/07/22 09:11:28;;;;;;;;;;;;;;;29.14;49.32;100773.13;1736135;82;20190;-92
2022/07/22 09:13:54;;;;;;;;;;;;;;;29.07;48.99;100769.03;1737312;82;21451;-92
2022/07/22 09:16:42;;;;;;;;;;;;;;;29.05;48.92;100763.02;1712720;82;20110;-92
2022/07/22 09:19:08;;;;;;;;;;;;;;;29.04;48.71;100767.69;1733890;82;20170;-93
2022/07/22 09:21:38;;;;;;;;;;;;;;;29.12;48.63;100758.03;1731859;82;20616;-92
2022/07/22 09:24:05;;;;;;;;;;;;;;;29.12;48.43;100755.28;1733260;82;20158;-91
2022/07/22 09:26:36;;;;;;;;;;;;;;;29.07;48.15;100752.01;1729149;81;21958;-88
2022/07/22 09:29:02;;;;;;;;;;;;;;;29.16;47.93;100753.07;1741647;82;20175;-90
2022/07/22 09:31:30;;;;;;;;;;;;;;;29.18;47.58;100754.97;1743543;80;20120;-90
2022/07/22 09:33:58;;;;;;;;;;;;;;;29.15;47.37;100754.72;1709017;83;21402;-93
2022/07/22 09:36:24;;;;;;;;;;;;;;;28.71;47.11;100751.94;1726456;82;20197;-90
2022/07/22 09:38:50;;;;;;;;;;;;;;;28.75;47.14;100750.25;1730492;81;22675;-90
2022/07/22 09:41:16;;;;;;;;;;;;;;;28.97;46.92;100747.12;1724127;81;20173;-89
2022/07/22 09:43:41;;;;;;;;;;;;;;;29.24;46.76;100749.70;1743173;81;20731;-89
2022/07/22 09:46:09;;;;;;;;;;;;;;;29.39;46.50;100749.36;1735377;81;20709;-90
2022/07/22 09:48:37;;;;;;;;;;;;;;;29.18;46.27;100749.47;1720124;82;20099;-90
2022/07/22 09:51:04;;;;;;;;;;;;;;;29.14;46.31;100748.39;1716088;81;22565;-91
2022/07/22 09:53:30;;;;;;;;;;;;;;;28.93;46.07;100750.16;1742393;82;20134;-92
2022/07/22 09:55:56;;;;;;;;;;;;;;;28.56;46.10;100753.33;1728475;82;20105;-91
2022/07/22 09:58:22;;;;;;;;;;;;;;;28.72;46.20;100746.70;1736679;82;20620;-92
2022/07/22 10:00:48;;;;;;;;;;;;;;;29.10;46.03;100750.61;1735419;81;20244;-93
2022/07/22 10:03:25;;;;;;;;;;;;;;;29.14;45.83;100747.56;1739206;82;22481;-93
2022/07/22 10:05:51;;;;;;;;;;;;;;;29.51;45.66;100739.66;1730896;82;20238;-93
2022/07/22 10:08:16;;;;;;;;;;;;;;;29.66;45.18;100746.97;1741410;81;20189;-91
2022/07/22 10:10:42;;;;;;;;;;;;;;;29.42;44.90;100735.04;1732399;81;20708;-92
2022/07/22 10:13:08;;;;;;;;;;;;;;;29.11;44.69;100744.02;1734443;81;20248;-90
2022/07/22 10:15:35;;;;;;;;;;;;;;;28.88;44.75;100740.05;1738972;82;21840;-90
2022/07/22 10:18:06;;;;;;;;;;;;;;;28.75;44.63;100742.02;1737977;81;20895;-91
2022/07/22 10:20:32;;;;;;;;;;;;;;;28.86;44.62;100736.74;1742264;81;20201;-90
2022/07/22 10:23:02;;;;;;;;;;;;;;;29.12;44.49;100728.64;1722912;82;20675;-92
2022/07/22 10:25:32;;;;;;;;;;;;;;;29.18;44.33;100727.49;1721283;82;20197;-87
2022/07/22 10:28:01;;;;;;;;;;;;;;;29.22;44.10;100727.20;1737850;81;22810;-86
2022/07/22 10:30:30;;;;;;;;;;;;;;;29.21;44.08;100729.66;1737406;81;20191;-82
2022/07/22 10:33:08;;;;;;;;;;;;;;;29.49;43.89;100720.41;1737511;81;20505;-84
2022/07/22 10:35:36;;;;;;;;;;;;;;;29.55;43.69;100723.41;1740552;82;20725;-84
2022/07/22 10:38:04;;;;;;;;;;;;;;;29.17;43.38;100728.59;1736436;81;20421;-84
2022/07/22 10:40:33;;;;;;;;;;;;;;;28.86;43.46;100725.77;1733888;81;21893;-84
2022/07/22 10:43:03;;;;;;;;;;;;;;;28.66;43.51;100735.45;1731075;81;20224;-84
2022/07/22 10:45:40;;;;;;;;;;;;;;;28.48;43.56;100733.31;1731243;81;20165;-84
2022/07/22 10:48:11;;;;;;;;;;;;;;;28.44;43.71;100729.48;1725590;82;20663;-84
2022/07/22 10:50:41;;;;;;;;;;;;;;;28.78;43.78;100732.41;1728432;81;20110;-84
2022/07/22 10:53:10;;;;;;;;;;;;;;;29.05;43.62;100724.56;1721707;81;23049;-84
2022/07/22 10:55:35;;;;;;;;;;;;;;;29.09;43.49;100723.72;1734710;81;20189;-84
2022/07/22 10:58:34;;;;;;;;;;;;;;;29.35;43.38;100718.05;1738467;81;20295;-84
2022/07/22 11:01:08;;;;;;;;;;;;;;;29.66;43.13;100714.77;1730476;81;20595;-84
2022/07/22 11:03:35;;;;;;;;;;;;;;;29.66;42.66;100723.59;1737443;81;20158;-84
2022/07/22 11:06:20;;;;;;;;;;;;;;;29.42;42.43;100718.55;1721097;82;21781;-84
2022/07/22 11:08:47;;;;;;;;;;;;;;;29.19;42.26;100720.08;1740659;82;20192;-84
2022/07/22 11:11:13;;;;;;;;;;;;;;;29.36;42.17;100708.71;1733665;82;20162;-84
2022/07/22 11:13:40;;;;;;;;;;;;;;;29.59;42.06;100721.73;1739412;81;20765;-84
2022/07/22 11:16:20;;;;;;;;;;;;;;;29.85;41.86;100715.46;1739505;82;20182;-84
2022/07/22 11:18:55;;;;;;;;;;;;;;;29.98;41.41;100715.59;1736604;81;21814;-84
2022/07/22 11:21:22;;;;;;;;;;;;;;;29.90;41.11;100717.63;1738521;82;20086;-84
2022/07/22 11:23:49;;;;;;;;;;;;;;;29.80;40.83;100713.57;1740664;82;20131;-84
2022/07/22 11:26:16;;;;;;;;;;;;;;;29.89;40.90;100703.59;1734112;81;20693;-85
2022/07/22 11:28:43;;;;;;;;;;;;;;;30.09;40.82;100703.92;1726664;81;20164;-84
2022/07/22 11:31:10;;;;;;;;;;;;;;;30.05;40.55;100703.69;1738103;81;21803;-84
2022/07/22 11:33:36;;;;;;;;;;;;;;;29.94;40.36;100715.94;1729411;81;20169;-84
2022/07/22 11:36:04;;;;;;;;;;;;;;;29.83;40.37;100711.61;1738057;81;20267;-84
2022/07/22 11:38:41;;;;;;;;;;;;;;;29.70;40.08;100710.34;1737855;82;20656;-84
2022/07/22 11:41:06;;;;;;;;;;;;;;;29.52;40.05;100710.25;1731582;81;20166;-84
2022/07/22 11:43:46;;;;;;;;;;;;;;;29.64;40.16;100710.67;1738186;81;22029;-84
2022/07/22 11:46:16;;;;;;;;;;;;;;;29.72;39.90;100712.26;1724256;81;20162;-84
2022/07/22 11:48:42;;;;;;;;;;;;;;;29.48;39.76;100712.75;1741573;81;20402;-84
2022/07/22 11:51:10;;;;;;;;;;;;;;;29.34;39.87;100710.94;1740084;81;20608;-84
2022/07/22 11:53:37;;;;;;;;;;;;;;;29.30;39.93;100708.48;1738368;82;20409;-84
2022/07/22 11:56:03;;;;;;;;;;;;;;;29.12;39.92;100699.80;1740800;81;22655;-84
2022/07/22 11:58:47;;;;;;;;;;;;;;;28.92;40.08;100704.05;1741229;82;20449;-84
2022/07/22 12:01:14;;;;;;;;;;;;;;;28.94;40.19;100699.09;1736140;81;20162;-84
2022/07/22 12:03:42;;;;;;;;;;;;;;;28.96;40.25;100699.61;1738196;81;20624;-84
2022/07/22 12:06:10;;;;;;;;;;;;;;;29.13;40.38;100694.55;1740835;81;20457;-84
2022/07/22 12:08:42;;;;;;;;;;;;;;;29.58;40.41;100695.34;1725364;82;21840;-84
2022/07/22 12:11:09;;;;;;;;;;;;;;;29.72;40.11;100692.19;1737289;82;20123;-84
2022/07/22 12:13:35;;;;;;;;;;;;;;;29.88;39.95;100696.45;1737134;82;20224;-84
2022/07/22 12:16:04;;;;;;;;;;;;;;;29.87;39.67;100685.20;1737645;82;20696;-85
2022/07/22 12:18:30;;;;;;;;;;;;;;;29.81;39.66;100687.69;1734611;81;20169;-84
2022/07/22 12:20:56;;;;;;;;;;;;;;;29.72;39.50;100682.56;1715106;82;21851;-84
2022/07/22 12:23:24;;;;;;;;;;;;;;;29.57;39.61;100681.32;1732598;81;20253;-84
2022/07/22 12:25:55;;;;;;;;;;;;;;;29.59;39.65;100681.29;1739640;82;20159;-85
2022/07/22 12:28:21;;;;;;;;;;;;;;;29.49;39.71;100680.56;1725771;81;21790;-84
2022/07/22 12:30:48;;;;;;;;;;;;;;;29.35;39.60;100681.78;1741300;82;20182;-84
2022/07/22 12:33:15;;;;;;;;;;;;;;;29.21;39.69;100674.72;1731583;82;21836;-84